Terminal Aerodrome Forecast
Issued by NWS Bismarck, ND

Home | Current Version | Previous Version | Graphics & Text | Print | Product List | Glossary On
Versions: 1 2 3 4 5 6 7 8 9 10 11 12 13 14 15 16
432
FTUS43 KBIS 220520
TAFBIS
TAF
KBIS 220520Z 2206/2306 18013KT P6SM SCT250
     FM221400 20008KT P6SM FEW250
     FM222200 26008KT P6SM FEW070 SCT120
     FM230100 30006KT P6SM SCT080 BKN110=

USA.gov is the U.S. government's official web portal to all federal, state and local government web resources and services.